• Join FlightAware (Why Join?)
  • Login
  • US Flag 
05:07AM EDT


 

Airport Tracker/Info


-or-


 

Live Flight TrackerFlight Track Log ✈ AWI4058 ✈ 08-May-2013 ✈ KSTL - KPHL

Flight Track Log - Related Links

Times and Time Zones

All times are in EDT time to prevent confusion due to time zone crossing. See the AWI4058 flight status page for this flight to view local times or setup timezone preferences in your user account.

Time Position Orientation Groundspeed Altitude Reporting Facility
EDT Latitude Longitude Course Direction KTS MPH feet Rate Location/Type
03:24PM 38.8000 -90.4500 84° East 201 231 2,500  Level Gateway (St. Louis) TRACON
03:25PM 38.8500 -90.4333 15° North 250 288 4,600 2,100 Climbing Gateway (St. Louis) TRACON
03:26PM 38.7627 -89.7747 87° East  Level FlightAware Approximate
03:27PM 38.7723 -89.6272 80° East  Level FlightAware Approximate
03:27PM 38.8544 -90.2650 88° East 282 325 8,400  Level Kansas City Center
03:28PM 38.7887 -89.4804 84° East  Level FlightAware Approximate
03:28PM 38.8458 -90.1644 96° East 282 325 10,900  Level Kansas City Center
03:29PM 38.7993 -89.3430 84° East  Level FlightAware Approximate
03:29PM 38.8356 -90.0581 97° East 295 339 12,600  Level Kansas City Center
03:30PM 38.8247 -89.9414 97° East 320 368 14,000 1,440 Climbing Kansas City Center
03:31PM 38.8133 -89.8192 97° East 339 390 15,600 1,500 Climbing Kansas City Center
03:32PM 38.8006 -89.6939 97° East 349 402 17,100 1,380 Climbing Kansas City Center
03:33PM 38.7892 -89.5408 95° East 355 409 18,500 1,200 Climbing Kansas City Center
03:34PM 38.8053 -89.4100 81° East 371 427 19,700 1,140 Climbing Kansas City Center
03:35PM 38.8233 -89.2689 81° East 374 430 20,900 1,020 Climbing Kansas City Center
03:36PM 38.8406 -89.1356 81° East 379 436 21,900 900 Climbing Kansas City Center
03:37PM 38.8575 -88.9986 81° East 388 447 22,800 780 Climbing Kansas City Center
03:38PM 38.8756 -88.8733 79° East 396 456 23,600 660 Climbing Kansas City Center
03:39PM 38.8956 -88.7017 81° East 403 464 24,200 480 Climbing Kansas City Center
03:40PM 38.9122 -88.5569 82° East 408 470 24,600 480 Climbing Kansas City Center
03:41PM 38.9353 -88.4122 78° East 410 472 25,200 480 Climbing Kansas City Center
03:42PM 38.9697 -88.2950 69° East 425 489 25,600 480 Climbing Indianapolis Center
03:43PM 39.0017 -88.1136 77° East 430 495 26,200 480 Climbing Indianapolis Center
03:44PM 39.0300 -87.9617 76° East 432 497 26,700 480 Climbing Indianapolis Center
03:45PM 39.0581 -87.8100 77° East 434 499 27,200 540 Climbing Indianapolis Center
03:46PM 39.0847 -87.6600 77° East 428 493 27,900 660 Climbing Indianapolis Center
03:47PM 39.1122 -87.5106 77° East 427 491 28,600 660 Climbing Indianapolis Center
03:48PM 39.1369 -87.3703 77° East 420 483 29,300 660 Climbing Indianapolis Center
03:49PM 39.1678 -87.1969 77° East 417 480 30,000 480 Climbing Indianapolis Center
03:50PM 39.1928 -87.0517 77° East 418 481 30,400 480 Climbing Indianapolis Center
03:51PM 39.2183 -86.9072 77° East 417 480 31,000 480 Climbing Indianapolis Center
03:52PM 39.2433 -86.7647 77° East 412 474 31,500 480 Climbing Indianapolis Center
03:53PM 39.2669 -86.6231 78° East 409 471 32,000 240 Climbing Indianapolis Center
03:54PM 39.2992 -86.4522 76° East 413 475 32,000  Level Indianapolis Center
03:55PM 39.3531 -86.3194 62° Northeast 422 486 32,000 180 Level Indianapolis Center
03:56PM 39.4078 -86.1869 62° Northeast 424 488 32,400 420 Climbing Indianapolis Center
03:58PM 39.4611 -86.0564 62° Northeast 417 480 32,900 240 Climbing Indianapolis Center
03:59PM 39.4961 -85.9169 72° East 421 484 33,000  Climbing Indianapolis Center
04:00PM 39.5211 -85.7389 80° East 423 487 33,000  Level Indianapolis Center
04:01PM 39.5417 -85.5889 80° East 427 491 33,000  Level Indianapolis Center
04:02PM 39.5631 -85.4358 80° East 433 498 33,000  Level Indianapolis Center
04:03PM 39.5831 -85.2825 80° East 434 499 33,000  Level Indianapolis Center
04:04PM 39.6031 -85.1283 80° East 436 502 33,000  Level Indianapolis Center
04:05PM 39.6289 -84.9425 80° East 438 504 33,000  Level Indianapolis Center
04:06PM 39.6475 -84.7906 81° East 438 504 33,000  Level Indianapolis Center
04:07PM 39.6683 -84.6319 80° East 442 509 33,000  Level Indianapolis Center
04:08PM 39.6886 -84.4725 81° East 442 509 33,000  Level Indianapolis Center
04:09PM 39.7083 -84.3144 81° East 443 510 33,000  Level Indianapolis Center
04:10PM 39.7306 -84.1289 81° East 443 510 33,000  Level Indianapolis Center
04:11PM 39.7492 -83.9692 81° East 442 509 33,000  Level Indianapolis Center
04:12PM 39.7686 -83.8089 81° East 445 512 33,000  Level Indianapolis Center
04:13PM 39.7869 -83.6500 81° East 444 511 33,000  Level Indianapolis Center
04:14PM 39.8067 -83.4833 81° East 447 514 33,000  Level Indianapolis Center
04:15PM 39.8272 -83.3106 81° East 449 517 33,000  Level Indianapolis Center
04:16PM 39.8456 -83.1517 81° East 445 512 33,000 -60 Level Indianapolis Center
04:18PM 39.8697 -82.9619 81° East  Level FlightAware Approximate
04:18PM 39.8814 -82.8333 81° East 442 509 32,900  Level Indianapolis Center
04:19PM 39.8981 -82.6742 82° East 439 505 33,000  Climbing Indianapolis Center
04:20PM 39.9181 -82.4894 82° East 439 505 33,000  Level Indianapolis Center
04:21PM 39.9356 -82.3314 82° East 438 504 33,000  Level Indianapolis Center
04:22PM 39.9528 -82.1733 82° East 440 506 33,000  Level Indianapolis Center
04:23PM 39.9692 -82.0144 82° East 440 506 33,000  Level Indianapolis Center
04:24PM 39.9850 -81.8561 83° East 437 503 33,000  Level Indianapolis Center
04:25PM 40.0014 -81.6867 83° East 437 503 33,000  Level Indianapolis Center
04:26PM 40.0158 -81.5292 83° East 436 502 33,000  Level Indianapolis Center
04:28PM 40.0319 -81.3719 82° East 435 501 33,000  Level Indianapolis Center
04:29PM 40.0472 -81.2133 83° East 437 503 33,000  Level Indianapolis Center
04:30PM 40.0619 -81.0569 83° East 434 499 33,000  Level Indianapolis Center
04:31PM 40.0833 -80.8789 81° East 427 491 33,000  Level Cleveland Center
04:32PM 40.0964 -80.7242 84° East 427 491 33,000  Level Cleveland Center
04:33PM 40.1089 -80.5694 84° East 427 491 33,000  Level Cleveland Center
04:34PM 40.1233 -80.4175 83° East 427 491 33,000  Level Cleveland Center
04:35PM 40.1375 -80.2628 83° East 427 491 33,000  Level Cleveland Center
04:36PM 40.1475 -80.0942 86° East 428 493 33,000  Level Cleveland Center
04:37PM 40.1633 -79.9583 81° East 422 486 33,000  Level Cleveland Center
04:38PM 40.1769 -79.8033 83° East 422 486 33,000  Level Cleveland Center
04:39PM 40.1903 -79.6347 84° East 428 493 33,000  Level Cleveland Center
04:40PM 40.2036 -79.4850 83° East 428 493 33,000  Level Cleveland Center
04:41PM 40.2147 -79.3353 84° East 418 481 33,000  Level Cleveland Center
04:42PM 40.2253 -79.1853 85° East 418 481 33,000  Level Cleveland Center
04:43PM 40.2361 -79.0383 84° East 413 475 33,000  Level Cleveland Center
04:44PM 40.2464 -78.8883 85° East 413 475 33,000  Level Cleveland Center
04:45PM 40.2567 -78.7386 85° East 413 475 33,000  Level Cleveland Center
04:46PM 40.2686 -78.5886 84° East 413 475 33,000 -960 Level Cleveland Center
04:47PM 40.2803 -78.4331 84° East 413 475 31,100 -1,800 Descending Cleveland Center
04:49PM 40.2838 -78.2551 87° East  Level FlightAware Approximate
04:50PM 40.2572 -77.9275 90° East 388 447 25,000  Level New York Center
04:51PM 40.2506 -77.7961 94° East 373 429 25,000  Level New York Center
04:52PM 40.2503 -77.6572 90° East 373 429 25,000  Level New York Center
04:53PM 40.2644 -77.5200 82° East 373 429 25,000 -480 Level New York Center
04:54PM 40.2769 -77.3742 84° East 379 436 24,100 -1,260 Descending New York Center
04:55PM 40.3050 -77.2408 75° East 390 449 22,600 -1,500 Descending New York Center
04:56PM 40.3005 -77.2847 90° East  Level FlightAware Approximate
04:56PM 40.3492 -77.1222 64° Northeast 372 428 21,100  Level New York Center
04:57PM 40.3436 -76.9883 93° East 357 411 19,600 -1,500 Descending New York Center
04:58PM 40.3192 -76.8608 104° East 353 406 18,100 -1,500 Descending New York Center
04:59PM 40.3047 -76.7317 98° East 353 406 16,600 -1,500 Descending New York Center
05:00PM 40.3047 -76.6092 90° East 353 406 15,200 -1,620 Descending New York Center
05:01PM 40.2803 -76.5092 108° East 335 386 13,400 -1,740 Descending New York Center
05:02PM 40.2467 -76.3867 110° East 329 379 11,800 -1,320 Descending New York Center
05:03PM 40.2222 -76.2867 108° East 324 373 10,900 -900 Descending New York Center
05:04PM 40.1903 -76.1672 109° East 324 373 10,000 -600 Descending New York Center
05:05PM 40.1597 -76.0589 110° East 310 357 9,800 -900 Descending New York Center
05:06PM 40.1703 -75.9619 82° East 274 315 8,300 -900 Descending New York Center
05:07PM 40.1975 -75.8633 70° East 274 315 8,000 -420 Descending New York Center
05:08PM 40.2142 -75.7642 78° East 274 315 7,500 -600 Descending New York Center
05:09PM 40.2242 -75.6750 82° East 275 316 6,900 -1,020 Descending New York Center
05:10PM 40.2364 -75.5781 81° East 275 316 5,600 -1,500 Descending New York Center
05:11PM 40.2114 -75.4786 108° East 255 293 4,000 -840 Descending New York Center
05:12PM 40.1811 -75.3978 116° Southeast 250 288 4,000  Level New York Center
05:13PM 40.1533 -75.3117 113° Southeast 250 288 4,000  Level New York Center
05:14PM 40.1097 -75.2489 132° Southeast 240 276 4,000  Level New York Center
05:15PM 40.0567 -75.2239 160° South 208 239 4,000  Level New York Center
05:16PM 40.0167 -75.2000 155° Southeast 199 229 4,000  Level Philadelphia TRACON
05:17PM 39.9667 -75.1667 153° Southeast 194 223 4,000  Level Philadelphia TRACON